Time;durP1;ratioP1;P1;durP2;ratioP2;P2;SDS_P1;SDS_P2;PMS_P1;PMS_P2;Temp;Humidity;BMP_temperature;BMP_pressure;BME280_temperature;BME280_humidity;BME280_pressure;Samples;Min_cycle;Max_cycle;Signal;HPM_P1;HPM_P2
2023/01/11 00:00:17;;;;;;;11.23;7.75;;;8.80;99.90;;;;;;5031555;28;20045;-74
2023/01/11 00:02:44;;;;;;;11.32;7.88;;;8.80;99.90;;;;;;5029740;28;20091;-74
2023/01/11 00:05:10;;;;;;;8.93;7.60;;;8.80;99.90;;;;;;5030632;28;20042;-74
2023/01/11 00:07:36;;;;;;;8.80;7.50;;;8.70;99.90;;;;;;5031606;28;20038;-74
2023/01/11 00:10:03;;;;;;;9.57;6.68;;;8.80;99.90;;;;;;5030337;28;20110;-74
2023/01/11 00:12:30;;;;;;;9.52;7.60;;;8.90;99.90;;;;;;5029515;28;20060;-74
2023/01/11 00:14:55;;;;;;;11.07;7.90;;;8.90;99.90;;;;;;5031376;28;20075;-74
2023/01/11 00:17:21;;;;;;;9.48;7.00;;;8.90;99.90;;;;;;5030162;28;20045;-75
2023/01/11 00:19:47;;;;;;;8.70;6.47;;;8.90;99.90;;;;;;5030186;28;20038;-74
2023/01/11 00:22:12;;;;;;;10.30;6.90;;;8.90;99.90;;;;;;5031336;28;20400;-74
2023/01/11 00:24:38;;;;;;;11.95;7.18;;;8.80;99.90;;;;;;5029535;28;20083;-74
2023/01/11 00:27:03;;;;;;;9.40;5.97;;;8.90;99.90;;;;;;5030131;28;20037;-74
2023/01/11 00:29:29;;;;;;;7.13;5.47;;;8.90;99.90;;;;;;5030081;28;20426;-74
2023/01/11 00:31:54;;;;;;;8.45;6.75;;;9.00;99.90;;;;;;5030128;28;20046;-74
2023/01/11 00:34:20;;;;;;;8.98;7.07;;;9.00;99.90;;;;;;5029402;28;20088;-74
2023/01/11 00:36:46;;;;;;;8.82;6.57;;;8.90;99.90;;;;;;5030256;28;20041;-74
2023/01/11 00:39:11;;;;;;;9.50;6.47;;;8.90;99.90;;;;;;5031379;28;20041;-74
2023/01/11 00:49:50;;;;;;;8.48;6.18;;;9.10;99.90;;;;;;5030637;28;20049;-74
2023/01/11 00:52:16;;;;;;;11.50;7.32;;;9.20;99.90;;;;;;5031566;28;20503;-74
2023/01/11 00:54:42;;;;;;;7.95;6.57;;;9.10;99.90;;;;;;5034757;28;20033;-74
2023/01/11 00:57:08;;;;;;;7.95;5.90;;;9.10;99.90;;;;;;5033753;28;20041;-74
2023/01/11 00:59:34;;;;;;;7.10;5.75;;;9.10;99.90;;;;;;5033876;28;20513;-74
2023/01/11 01:02:00;;;;;;;8.68;6.28;;;9.20;99.90;;;;;;5033574;28;20041;-74
2023/01/11 01:04:25;;;;;;;7.55;6.05;;;9.20;99.90;;;;;;5034092;28;20049;-75
2023/01/11 01:06:51;;;;;;;7.82;6.50;;;9.20;99.90;;;;;;5033604;28;20052;-74
2023/01/11 01:09:16;;;;;;;8.23;6.25;;;9.20;99.90;;;;;;5034694;28;20481;-74
2023/01/11 01:11:42;;;;;;;7.57;6.10;;;9.30;99.90;;;;;;5034830;28;20042;-74
2023/01/11 01:14:27;;;;;;;7.93;5.22;;;9.20;99.90;;;;;;5033814;28;20128;-74
2023/01/11 01:17:01;;;;;;;10.48;5.63;;;9.30;99.90;;;;;;5067986;23;20087;-85
2023/01/11 01:19:28;;;;;;;7.95;5.72;;;9.30;99.90;;;;;;5037312;28;20076;-84
2023/01/11 01:21:55;;;;;;;7.50;5.55;;;9.20;99.90;;;;;;5054102;28;20120;-84
2023/01/11 01:24:21;;;;;;;5.95;5.10;;;9.30;99.90;;;;;;5052815;28;20171;-84
2023/01/11 01:26:47;;;;;;;7.57;5.80;;;9.30;99.90;;;;;;5038279;28;20103;-84
2023/01/11 01:29:14;;;;;;;10.75;6.15;;;9.40;99.90;;;;;;5017214;28;20109;-85
2023/01/11 01:31:42;;;;;;;6.50;5.13;;;9.40;99.90;;;;;;5017137;28;20037;-84
2023/01/11 01:34:09;;;;;;;6.78;5.22;;;9.40;99.90;;;;;;5033360;28;20037;-84
2023/01/11 01:36:35;;;;;;;7.35;5.25;;;9.40;99.90;;;;;;5034014;28;20041;-84
2023/01/11 01:39:02;;;;;;;6.28;4.97;;;9.40;99.90;;;;;;5034645;28;20046;-84
2023/01/11 01:41:28;;;;;;;6.13;5.07;;;9.50;99.90;;;;;;5035516;28;20388;-85
2023/01/11 01:43:59;;;;;;;6.88;5.38;;;9.40;99.90;;;;;;5043856;28;20076;-84
2023/01/11 01:46:32;;;;;;;6.63;4.97;;;9.50;99.90;;;;;;5053665;28;20052;-85
2023/01/11 01:49:06;;;;;;;7.07;5.10;;;9.50;99.90;;;;;;5038240;28;20037;-84
2023/01/11 01:51:40;;;;;;;6.15;5.18;;;9.50;99.90;;;;;;5017523;28;20033;-85
2023/01/11 01:54:09;;;;;;;6.80;5.82;;;9.40;99.90;;;;;;5016127;28;20052;-84
2023/01/11 01:56:44;;;;;;;6.35;5.55;;;9.50;99.90;;;;;;5033984;28;20060;-85
2023/01/11 01:59:12;;;;;;;6.35;5.20;;;9.60;99.90;;;;;;5016742;28;20041;-84
2023/01/11 02:01:48;;;;;;;6.25;4.90;;;9.50;99.90;;;;;;5018632;28;20038;-84
2023/01/11 02:04:35;;;;;;;5.32;4.53;;;9.70;99.90;;;;;;5034310;28;20546;-84
2023/01/11 02:07:23;;;;;;;5.90;4.45;;;9.70;99.90;;;;;;5037104;28;20041;-83
2023/01/11 02:09:57;;;;;;;7.40;4.63;;;9.70;99.90;;;;;;5033758;28;20458;-84
2023/01/11 02:12:25;;;;;;;6.78;5.35;;;9.70;99.90;;;;;;5032721;28;20048;-83
2023/01/11 02:14:52;;;;;;;7.22;4.50;;;9.70;99.90;;;;;;5035357;28;20045;-83
2023/01/11 02:17:17;;;;;;;6.70;4.65;;;9.60;99.90;;;;;;5018192;28;20451;-84
2023/01/11 02:19:51;;;;;;;5.75;4.05;;;9.80;99.90;;;;;;5036707;28;20046;-83
2023/01/11 02:22:44;;;;;;;4.97;4.15;;;9.80;99.90;;;;;;5020225;28;20052;-82
2023/01/11 02:25:43;;;;;;;5.80;3.90;;;9.70;99.90;;;;;;5022094;28;20128;-84
2023/01/11 02:28:18;;;;;;;6.72;4.40;;;9.70;99.90;;;;;;5038017;28;20046;-83
2023/01/11 02:31:09;;;;;;;5.55;4.00;;;9.80;99.90;;;;;;5039482;28;20041;-83
2023/01/11 02:33:53;;;;;;;6.25;3.63;;;9.80;99.90;;;;;;5021943;28;20041;-83
2023/01/11 02:36:47;;;;;;;4.88;3.95;;;9.80;99.90;;;;;;5022222;28;20049;-83
2023/01/11 02:39:29;;;;;;;5.82;3.60;;;9.90;99.90;;;;;;5023015;28;20041;-83
2023/01/11 02:45:05;;;;;;;4.82;3.20;;;10.00;99.90;;;;;;5051392;28;20050;-83
2023/01/11 02:48:08;;;;;;;4.70;3.70;;;9.90;99.90;;;;;;5042369;28;20049;-83
2023/01/11 02:50:48;;;;;;;7.78;3.85;;;9.90;99.90;;;;;;5022323;28;20037;-83
2023/01/11 02:53:22;;;;;;;5.68;3.28;;;10.00;99.90;;;;;;5037793;28;20038;-83
2023/01/11 02:55:53;;;;;;;6.38;3.30;;;10.00;99.90;;;;;;5036620;28;20072;-84
2023/01/11 02:58:21;;;;;;;3.25;2.70;;;10.00;99.90;;;;;;5035616;28;20171;-83
2023/01/11 03:00:48;;;;;;;6.00;3.10;;;10.00;99.90;;;;;;5037443;28;20045;-83
2023/01/11 03:03:29;;;;;;;5.38;3.03;;;10.00;99.90;;;;;;5018710;28;20522;-84
2023/01/11 03:06:11;;;;;;;5.28;3.03;;;10.10;99.90;;;;;;5036080;28;20064;-84
2023/01/11 03:09:04;;;;;;;4.22;2.80;;;10.00;99.90;;;;;;5038332;28;20045;-83
2023/01/11 03:14:44;;;;;;;5.68;2.88;;;10.10;99.90;;;;;;5037725;28;20072;-83
2023/01/11 03:17:18;;;;;;;4.38;2.55;;;10.10;99.90;;;;;;5037198;28;20075;-83
2023/01/11 03:19:53;;;;;;;4.07;2.70;;;10.20;99.90;;;;;;5037143;28;20057;-84
2023/01/11 03:22:30;;;;;;;3.80;2.63;;;10.10;99.90;;;;;;5032630;28;20112;-82
2023/01/11 03:25:11;;;;;;;4.22;2.47;;;10.10;99.90;;;;;;5020272;28;20500;-82
2023/01/11 03:27:58;;;;;;;4.13;2.67;;;10.20;99.90;;;;;;5020354;28;20045;-83
2023/01/11 03:30:52;;;;;;;2.75;1.90;;;10.10;99.90;;;;;;5036113;28;20112;-83
2023/01/11 03:33:23;;;;;;;3.28;1.70;;;10.20;99.90;;;;;;5012664;28;20055;-82
2023/01/11 03:36:07;;;;;;;2.67;1.70;;;10.10;99.90;;;;;;5019288;28;20041;-82
2023/01/11 03:38:46;;;;;;;4.45;2.00;;;10.20;99.90;;;;;;5035636;28;20050;-82
2023/01/11 03:41:19;;;;;;;3.55;1.63;;;10.20;99.90;;;;;;5018705;28;20051;-83
2023/01/11 03:43:48;;;;;;;2.70;2.05;;;10.20;99.90;;;;;;5037315;28;20037;-82
2023/01/11 03:46:30;;;;;;;4.43;1.83;;;10.30;99.90;;;;;;5033266;28;20128;-81
2023/01/11 03:49:00;;;;;;;2.88;1.75;;;10.30;99.90;;;;;;5020398;28;20076;-81
2023/01/11 03:51:29;;;;;;;3.40;2.00;;;10.20;99.90;;;;;;5036301;28;20064;-82
2023/01/11 03:54:02;;;;;;;4.85;1.80;;;10.30;99.90;;;;;;5019733;28;20048;-82
2023/01/11 03:56:51;;;;;;;2.95;1.60;;;10.30;99.90;;;;;;5037161;28;20041;-82
2023/01/11 03:59:17;;;;;;;2.60;1.50;;;10.30;99.90;;;;;;5037113;28;20048;-82
2023/01/11 04:01:43;;;;;;;3.25;1.77;;;10.20;99.90;;;;;;5021028;28;20045;-83
2023/01/11 04:04:09;;;;;;;2.80;1.70;;;10.40;99.90;;;;;;5036048;28;20099;-82
2023/01/11 04:06:36;;;;;;;2.33;1.45;;;10.40;99.90;;;;;;5020477;28;20045;-82
2023/01/11 04:09:02;;;;;;;1.83;1.05;;;10.40;99.90;;;;;;5037574;28;20038;-83
2023/01/11 04:11:28;;;;;;;4.22;1.02;;;10.40;99.90;;;;;;5020174;28;20038;-83
2023/01/11 04:13:53;;;;;;;2.17;1.02;;;10.30;99.90;;;;;;5036439;28;20064;-83
2023/01/11 04:16:19;;;;;;;2.17;1.38;;;10.40;99.90;;;;;;5019959;28;20049;-83
2023/01/11 04:18:44;;;;;;;3.70;1.20;;;10.30;99.90;;;;;;5036646;28;20495;-83
2023/01/11 04:21:10;;;;;;;3.20;1.60;;;10.30;99.90;;;;;;5040110;28;20049;-83
2023/01/11 04:23:35;;;;;;;2.45;1.90;;;10.30;99.90;;;;;;5038462;28;20147;-83
2023/01/11 04:26:01;;;;;;;5.65;2.47;;;10.30;99.90;;;;;;5037520;28;20442;-83
2023/01/11 04:28:27;;;;;;;6.45;2.42;;;10.30;99.90;;;;;;5041459;28;20068;-83
2023/01/11 04:30:52;;;;;;;3.03;2.45;;;10.40;99.90;;;;;;5041067;28;20060;-83
2023/01/11 04:33:18;;;;;;;6.03;3.13;;;10.50;99.90;;;;;;5040453;28;20628;-83
2023/01/11 04:35:44;;;;;;;7.43;3.38;;;10.50;99.90;;;;;;5039947;28;20041;-83
2023/01/11 04:38:10;;;;;;;10.90;4.43;;;10.50;99.90;;;;;;5023754;28;20077;-83
2023/01/11 04:40:35;;;;;;;10.10;4.40;;;10.50;99.90;;;;;;5038417;28;20052;-83
2023/01/11 04:43:01;;;;;;;11.23;5.95;;;10.40;99.90;;;;;;5039073;28;20037;-82
2023/01/11 04:45:28;;;;;;;18.98;6.45;;;10.40;99.90;;;;;;5046873;28;20538;-82
2023/01/11 04:47:55;;;;;;;17.25;6.68;;;10.50;99.90;;;;;;5050427;28;20069;-82
2023/01/11 04:50:22;;;;;;;10.00;6.93;;;10.60;99.90;;;;;;5027268;28;20037;-82
2023/01/11 04:52:47;;;;;;;25.17;8.10;;;10.60;99.90;;;;;;5042086;28;20083;-82
2023/01/11 04:55:13;;;;;;;23.55;7.10;;;10.50;99.90;;;;;;5041998;28;20045;-83
2023/01/11 04:57:39;;;;;;;21.83;8.35;;;10.60;99.90;;;;;;5041597;28;20046;-82
2023/01/11 05:00:09;;;;;;;17.05;7.70;;;10.70;99.90;;;;;;5042622;28;20041;-82
2023/01/11 05:02:35;;;;;;;17.52;8.07;;;10.60;99.90;;;;;;5040287;28;20423;-82
2023/01/11 05:05:01;;;;;;;25.13;9.32;;;10.60;99.90;;;;;;5040192;28;20531;-83
2023/01/11 05:07:27;;;;;;;27.02;8.90;;;10.70;99.90;;;;;;5040065;28;20042;-83
2023/01/11 05:09:52;;;;;;;14.35;7.38;;;10.80;99.90;;;;;;5039945;28;20133;-83
2023/01/11 05:12:18;;;;;;;27.65;8.48;;;10.70;99.90;;;;;;5038687;28;20077;-83
2023/01/11 05:14:43;;;;;;;20.45;7.40;;;10.60;99.90;;;;;;5039307;28;20037;-83
2023/01/11 05:17:13;;;;;;;19.98;8.45;;;10.70;99.90;;;;;;5038887;28;20049;-83
2023/01/11 05:19:39;;;;;;;19.55;7.68;;;10.70;99.90;;;;;;5039160;28;20234;-82
2023/01/11 05:22:05;;;;;;;24.88;6.88;;;10.70;99.90;;;;;;5038765;28;20044;-83
2023/01/11 05:24:30;;;;;;;23.52;5.57;;;10.60;99.90;;;;;;5037120;28;20034;-82
2023/01/11 05:26:56;;;;;;;20.52;4.22;;;10.60;99.90;;;;;;5038354;28;20044;-83
2023/01/11 05:29:21;;;;;;;11.05;3.20;;;10.60;99.90;;;;;;5039712;28;20177;-83
2023/01/11 05:31:47;;;;;;;16.83;3.22;;;10.60;99.90;;;;;;5037487;28;20037;-83
2023/01/11 05:34:13;;;;;;;13.20;4.07;;;10.60;99.90;;;;;;5020441;28;20045;-83
2023/01/11 05:36:40;;;;;;;11.95;3.63;;;10.60;99.90;;;;;;5037283;28;20044;-83
2023/01/11 05:39:05;;;;;;;12.10;3.05;;;10.50;99.90;;;;;;5018873;28;20444;-83
2023/01/11 05:41:31;;;;;;;14.57;2.78;;;10.40;99.90;;;;;;5025762;28;20080;-83
2023/01/11 05:46:42;;;;;;;11.73;2.63;;;10.30;99.90;;;;;;5039922;28;20137;-84
2023/01/11 05:49:10;;;;;;;12.23;2.58;;;10.30;99.90;;;;;;5046378;28;20045;-84
2023/01/11 05:51:37;;;;;;;13.60;3.28;;;10.20;99.90;;;;;;5052127;28;20033;-83
2023/01/11 05:54:04;;;;;;;12.20;2.65;;;10.30;99.90;;;;;;5022505;28;20037;-84
2023/01/11 05:56:30;;;;;;;11.98;2.92;;;10.20;99.90;;;;;;5036878;28;20052;-83
2023/01/11 05:58:56;;;;;;;16.58;3.97;;;10.20;99.90;;;;;;5034975;28;20042;-84
2023/01/11 06:01:23;;;;;;;14.32;4.32;;;10.30;99.90;;;;;;5034643;28;20068;-84
2023/01/11 06:03:48;;;;;;;19.15;3.63;;;10.20;99.90;;;;;;5034828;28;20105;-84
2023/01/11 06:06:15;;;;;;;19.20;4.45;;;10.20;99.90;;;;;;5018857;28;20072;-84
2023/01/11 06:08:41;;;;;;;17.27;4.05;;;10.20;99.90;;;;;;5019585;28;20033;-83
2023/01/11 06:11:07;;;;;;;20.23;4.78;;;10.10;99.90;;;;;;5036119;28;20049;-83
2023/01/11 06:13:32;;;;;;;16.52;4.15;;;10.10;99.90;;;;;;5034574;28;20044;-84
2023/01/11 06:16:06;;;;;;;24.65;5.22;;;10.20;99.90;;;;;;5034442;28;20045;-84
2023/01/11 06:18:34;;;;;;;21.73;4.18;;;10.10;99.90;;;;;;5035345;28;20044;-83
2023/01/11 06:21:00;;;;;;;21.95;4.82;;;10.10;99.90;;;;;;5035525;28;20049;-83
2023/01/11 06:23:27;;;;;;;20.90;4.05;;;10.10;99.90;;;;;;5035387;28;20476;-83
2023/01/11 06:25:53;;;;;;;24.00;4.07;;;10.10;99.90;;;;;;5037770;28;20037;-84
2023/01/11 06:28:19;;;;;;;30.48;5.50;;;10.10;99.90;;;;;;5020931;28;20121;-84
2023/01/11 06:30:51;;;;;;;20.52;4.15;;;10.10;99.90;;;;;;5035069;28;20034;-83
2023/01/11 06:33:16;;;;;;;18.73;3.92;;;10.00;99.90;;;;;;5034331;28;20052;-84
2023/01/11 06:35:42;;;;;;;21.60;3.95;;;10.00;99.90;;;;;;5034448;28;20041;-84
2023/01/11 06:38:13;;;;;;;27.95;4.22;;;10.00;99.90;;;;;;5018673;28;20044;-84
2023/01/11 06:40:39;;;;;;;21.83;4.30;;;10.00;99.90;;;;;;5036190;28;20049;-84
2023/01/11 06:43:06;;;;;;;15.98;3.78;;;10.10;99.90;;;;;;5038837;28;20067;-84
2023/01/11 06:45:32;;;;;;;22.30;4.20;;;10.00;99.90;;;;;;5049394;28;20088;-84
2023/01/11 06:47:58;;;;;;;21.63;4.78;;;10.00;99.90;;;;;;5050512;28;20045;-83
2023/01/11 06:50:24;;;;;;;19.50;5.47;;;10.00;99.90;;;;;;5030718;28;20042;-83
2023/01/11 06:52:56;;;;;;;27.17;3.50;;;10.00;99.90;;;;;;5038600;28;20068;-84
2023/01/11 06:55:23;;;;;;;18.25;3.63;;;9.90;99.90;;;;;;5035264;28;20600;-84
2023/01/11 06:57:49;;;;;;;21.45;4.13;;;10.00;99.90;;;;;;5020690;28;20048;-84
2023/01/11 07:00:15;;;;;;;14.98;4.10;;;10.00;99.90;;;;;;5033607;28;20396;-84
2023/01/11 07:02:41;;;;;;;26.67;3.90;;;9.90;99.90;;;;;;5038508;28;20147;-84
2023/01/11 07:05:07;;;;;;;18.63;4.07;;;10.00;99.90;;;;;;5039925;28;20498;-84
2023/01/11 07:07:32;;;;;;;21.77;4.75;;;9.90;99.90;;;;;;5016666;28;20033;-84
2023/01/11 07:09:58;;;;;;;19.75;4.25;;;9.90;99.90;;;;;;5033463;28;20044;-84
2023/01/11 07:12:23;;;;;;;14.75;3.45;;;9.80;99.90;;;;;;5032589;28;20160;-84
2023/01/11 07:14:49;;;;;;;21.88;4.07;;;9.90;99.90;;;;;;5032101;28;20495;-84
2023/01/11 07:17:14;;;;;;;12.75;3.55;;;9.80;99.90;;;;;;5041152;23;20056;-78
2023/01/11 07:19:40;;;;;;;18.60;3.40;;;10.00;99.90;;;;;;5024057;28;20055;-78
2023/01/11 07:22:05;;;;;;;21.17;4.50;;;10.00;99.90;;;;;;5039114;28;20040;-79
2023/01/11 07:24:31;;;;;;;17.38;4.15;;;9.80;99.90;;;;;;5021111;28;20067;-78
2023/01/11 07:27:00;;;;;;;15.77;3.78;;;9.80;99.90;;;;;;5035740;28;20033;-79
2023/01/11 07:29:25;;;;;;;18.58;3.67;;;9.80;99.90;;;;;;5042645;28;20055;-78
2023/01/11 07:31:51;;;;;;;14.25;3.67;;;9.80;99.90;;;;;;5042706;28;20036;-79
2023/01/11 07:34:16;;;;;;;19.27;3.72;;;9.70;99.90;;;;;;5057541;28;20052;-79
2023/01/11 07:36:42;;;;;;;11.77;3.67;;;9.70;99.90;;;;;;5058660;28;20036;-78
2023/01/11 07:39:07;;;;;;;13.80;3.60;;;9.80;99.90;;;;;;5042696;28;20082;-79
2023/01/11 07:44:17;;;;;;;13.57;4.00;;;9.80;99.90;;;;;;5057130;28;20049;-79
2023/01/11 07:46:43;;;;;;;14.35;4.25;;;9.80;99.90;;;;;;5057781;28;20124;-79
2023/01/11 07:49:09;;;;;;;19.00;3.83;;;9.80;99.90;;;;;;5040831;28;20497;-78
2023/01/11 07:51:34;;;;;;;20.77;3.75;;;9.70;99.90;;;;;;5040569;28;20041;-77
2023/01/11 07:54:02;;;;;;;20.27;3.60;;;9.70;99.90;;;;;;5041246;28;20047;-78
2023/01/11 07:56:28;;;;;;;13.75;2.85;;;9.70;99.90;;;;;;5043097;28;20127;-78
2023/01/11 07:58:54;;;;;;;15.75;3.35;;;9.60;99.90;;;;;;5059111;28;20067;-78
2023/01/11 08:01:20;;;;;;;15.70;3.00;;;9.60;99.90;;;;;;5056735;28;20145;-78
2023/01/11 08:03:46;;;;;;;18.58;5.10;;;9.60;99.90;;;;;;5056644;28;20044;-79
2023/01/11 08:06:13;;;;;;;20.58;3.85;;;9.70;99.90;;;;;;5040551;28;20033;-78
2023/01/11 08:08:39;;;;;;;17.08;3.63;;;9.60;99.90;;;;;;5042779;28;20097;-78
2023/01/11 08:16:33;;;;;;;17.63;3.65;;;9.70;99.90;;;;;;5058886;28;20045;-77
2023/01/11 08:18:58;;;;;;;13.35;2.70;;;9.70;99.90;;;;;;5041724;28;20041;-78
2023/01/11 08:21:24;;;;;;;21.88;5.38;;;9.60;99.90;;;;;;5042999;28;20041;-79
2023/01/11 08:23:52;;;;;;;15.52;3.97;;;9.60;99.90;;;;;;5043228;28;20040;-79
2023/01/11 08:26:18;;;;;;;18.45;3.67;;;9.60;99.90;;;;;;5051590;28;20091;-79
2023/01/11 08:28:45;;;;;;;17.40;3.97;;;9.70;99.90;;;;;;5050407;28;20037;-77
2023/01/11 08:31:10;;;;;;;21.33;4.80;;;9.70;99.90;;;;;;5057673;28;20041;-77
2023/01/11 08:33:36;;;;;;;19.92;3.95;;;9.60;99.90;;;;;;5057184;28;20124;-78
2023/01/11 08:36:06;;;;;;;14.20;4.00;;;9.70;99.90;;;;;;5060353;28;20128;-79
2023/01/11 08:38:31;;;;;;;13.02;2.70;;;9.70;99.90;;;;;;5061677;28;20041;-78
2023/01/11 08:40:57;;;;;;;11.77;3.38;;;9.60;99.90;;;;;;5043928;28;20130;-78
2023/01/11 08:43:23;;;;;;;10.45;3.42;;;9.60;99.90;;;;;;5059708;28;20052;-79
2023/01/11 08:45:52;;;;;;;15.15;3.85;;;9.50;99.90;;;;;;5044000;28;20111;-78
2023/01/11 08:48:17;;;;;;;20.73;4.28;;;9.70;99.90;;;;;;5044262;28;20487;-79
2023/01/11 08:50:43;;;;;;;14.05;3.53;;;9.50;99.90;;;;;;5043524;28;20040;-79
2023/01/11 08:53:10;;;;;;;19.45;3.55;;;9.50;99.90;;;;;;5042734;28;20048;-79
2023/01/11 08:55:35;;;;;;;23.08;3.42;;;9.50;99.90;;;;;;5057586;28;20049;-78
2023/01/11 08:58:01;;;;;;;20.13;3.83;;;9.50;99.90;;;;;;5056775;28;20037;-78
2023/01/11 09:00:27;;;;;;;14.43;3.72;;;9.50;99.90;;;;;;5045850;28;20128;-77
2023/01/11 09:02:52;;;;;;;14.50;2.90;;;9.30;99.90;;;;;;5044722;28;20118;-78
2023/01/11 09:05:18;;;;;;;13.02;2.72;;;9.30;99.90;;;;;;5042093;28;20087;-78
2023/01/11 09:07:43;;;;;;;14.60;3.97;;;9.40;99.90;;;;;;5030076;28;20040;-78
2023/01/11 09:10:09;;;;;;;14.27;2.75;;;9.30;99.90;;;;;;5033178;28;20029;-78
2023/01/11 09:12:35;;;;;;;14.98;2.78;;;9.40;99.90;;;;;;5050046;28;20086;-75
2023/01/11 09:15:01;;;;;;;9.45;2.97;;;9.30;99.90;;;;;;5044054;28;20406;-79
2023/01/11 09:17:26;;;;;;;10.68;2.50;;;9.40;99.90;;;;;;5063725;28;20041;-78
2023/01/11 09:19:52;;;;;;;11.90;2.35;;;9.30;99.90;;;;;;5063130;28;20119;-78
2023/01/11 09:22:18;;;;;;;16.42;3.10;;;9.30;99.90;;;;;;5041955;28;20096;-78
2023/01/11 09:24:43;;;;;;;11.02;1.73;;;9.30;99.90;;;;;;5044987;28;20072;-78
2023/01/11 09:27:10;;;;;;;11.75;2.08;;;9.20;99.90;;;;;;5062197;28;20037;-82
2023/01/11 09:29:36;;;;;;;15.38;2.88;;;9.30;99.90;;;;;;5059484;28;20090;-78
2023/01/11 09:32:02;;;;;;;11.70;2.30;;;9.30;99.90;;;;;;5061034;28;20033;-78
2023/01/11 09:34:27;;;;;;;13.40;3.28;;;9.20;99.90;;;;;;5044172;28;20048;-79
2023/01/11 09:36:55;;;;;;;13.25;2.35;;;9.40;99.90;;;;;;5053482;28;20049;-79
2023/01/11 09:39:24;;;;;;;13.05;2.80;;;9.40;99.90;;;;;;5033381;28;20037;-79
2023/01/11 09:42:11;;;;;;;12.63;2.65;;;9.30;99.90;;;;;;5029605;28;20033;-79
2023/01/11 09:45:04;;;;;;;13.02;2.55;;;9.50;99.90;;;;;;5039528;28;20042;-80
2023/01/11 09:47:49;;;;;;;10.98;2.45;;;9.50;99.90;;;;;;5024506;28;20052;-81
2023/01/11 09:50:28;;;;;;;13.07;2.20;;;9.40;99.90;;;;;;5038554;28;20059;-78
2023/01/11 09:52:57;;;;;;;12.05;2.97;;;9.50;99.90;;;;;;5036844;28;20059;-79
2023/01/11 09:55:43;;;;;;;13.45;2.88;;;9.60;99.90;;;;;;5051176;28;20076;-78
2023/01/11 09:58:28;;;;;;;12.43;2.20;;;9.40;99.90;;;;;;5026898;28;20041;-78
2023/01/11 10:01:09;;;;;;;9.35;2.10;;;9.40;99.90;;;;;;5031341;28;20128;-79
2023/01/11 10:03:42;;;;;;;20.35;4.03;;;9.40;99.90;;;;;;5029955;28;20041;-79
2023/01/11 10:06:23;;;;;;;12.00;3.08;;;9.50;99.90;;;;;;5036973;28;20052;-79
2023/01/11 10:08:49;;;;;;;17.52;3.50;;;9.40;99.90;;;;;;5054976;28;20037;-79
2023/01/11 10:11:42;;;;;;;8.82;2.63;;;9.40;99.90;;;;;;5048876;28;20037;-79
2023/01/11 10:14:39;;;;;;;12.57;2.60;;;9.50;99.90;;;;;;4985440;28;20132;-79
2023/01/11 10:17:39;;;;;;;9.55;2.38;;;9.40;99.90;;;;;;5024334;28;20175;-80
2023/01/11 10:20:18;;;;;;;9.20;1.95;;;9.60;99.90;;;;;;5027719;28;20045;-78
2023/01/11 10:22:47;;;;;;;16.85;2.33;;;9.50;99.90;;;;;;5022815;28;20046;-78
2023/01/11 10:25:20;;;;;;;15.85;3.50;;;9.50;99.90;;;;;;5037532;28;20034;-78
2023/01/11 10:28:01;;;;;;;15.32;2.92;;;9.40;99.90;;;;;;5022386;28;20048;-78
2023/01/11 10:31:06;;;;;;;7.82;2.05;;;9.50;99.90;;;;;;5039943;28;20044;-79
2023/01/11 10:37:11;;;;;;;9.43;2.33;;;9.60;99.90;;;;;;5046589;28;20215;-78
2023/01/11 10:40:13;;;;;;;9.55;1.48;;;9.60;99.90;;;;;;5057349;28;20041;-80
2023/01/11 10:42:58;;;;;;;10.73;2.65;;;9.50;99.90;;;;;;5026209;28;20041;-81
2023/01/11 10:45:36;;;;;;;7.55;1.77;;;9.50;99.90;;;;;;5043660;28;20037;-82
2023/01/11 10:48:11;;;;;;;9.10;1.90;;;9.60;99.90;;;;;;5043994;28;20116;-80
2023/01/11 10:51:00;;;;;;;12.02;2.20;;;9.60;99.90;;;;;;5046442;28;20491;-80
2023/01/11 10:53:42;;;;;;;13.43;3.10;;;9.70;99.90;;;;;;5046330;28;20047;-82
2023/01/11 10:56:31;;;;;;;12.98;2.40;;;9.60;99.90;;;;;;5046314;28;20051;-79
2023/01/11 10:59:06;;;;;;;12.05;3.15;;;9.60;99.90;;;;;;5043093;28;20040;-80
2023/01/11 11:02:04;;;;;;;10.13;2.40;;;9.70;99.90;;;;;;5044659;28;20045;-79
2023/01/11 11:05:10;;;;;;;16.17;3.30;;;9.80;99.90;;;;;;5004893;28;20138;-79
2023/01/11 11:08:04;;;;;;;17.90;3.63;;;9.80;99.90;;;;;;5061002;28;20553;-80
2023/01/11 11:10:36;;;;;;;11.40;2.70;;;9.80;99.90;;;;;;5059488;28;20111;-80
2023/01/11 11:13:28;;;;;;;15.38;3.45;;;9.80;99.90;;;;;;5050087;28;20569;-80
2023/01/11 11:16:13;;;;;;;12.52;3.85;;;9.80;99.90;;;;;;5043647;28;20045;-81
2023/01/11 11:18:40;;;;;;;14.02;2.92;;;9.70;99.90;;;;;;5044675;28;20048;-80
2023/01/11 11:21:19;;;;;;;19.33;3.03;;;9.80;99.90;;;;;;5060496;28;20044;-80
2023/01/11 11:23:53;;;;;;;15.93;3.70;;;9.70;99.90;;;;;;5055711;28;20044;-80
2023/01/11 11:26:20;;;;;;;15.38;3.00;;;9.80;99.90;;;;;;5034761;28;20057;-80
2023/01/11 11:29:09;;;;;;;12.35;3.15;;;9.70;99.90;;;;;;5030662;28;20618;-81
2023/01/11 11:31:43;;;;;;;14.82;3.03;;;9.70;99.90;;;;;;5042287;28;20029;-80
2023/01/11 11:34:18;;;;;;;17.10;3.85;;;9.80;99.90;;;;;;5043660;28;20064;-80
2023/01/11 11:36:47;;;;;;;13.25;3.10;;;9.70;99.90;;;;;;5040587;28;20044;-83
2023/01/11 11:39:29;;;;;;;20.98;3.53;;;9.80;99.90;;;;;;5038723;28;20029;-81
2023/01/11 11:42:06;;;;;;;14.00;3.22;;;9.80;99.90;;;;;;5039564;28;20052;-80
2023/01/11 11:44:32;;;;;;;20.08;4.30;;;9.80;99.90;;;;;;5036826;28;20048;-81
2023/01/11 11:47:02;;;;;;;15.50;3.28;;;9.80;99.90;;;;;;5050759;28;20069;-80
2023/01/11 11:49:30;;;;;;;11.90;3.00;;;10.00;99.90;;;;;;5032981;28;20069;-82
2023/01/11 11:51:58;;;;;;;18.25;3.80;;;9.90;99.90;;;;;;5031180;28;20040;-80
2023/01/11 11:54:36;;;;;;;12.88;3.03;;;10.00;99.90;;;;;;5025869;28;20056;-80
2023/01/11 11:57:24;;;;;;;15.93;3.40;;;10.10;99.90;;;;;;5030143;28;20045;-79
2023/01/11 12:00:00;;;;;;;19.52;2.90;;;10.10;99.90;;;;;;5047585;28;20147;-80
2023/01/11 12:02:32;;;;;;;14.73;3.33;;;10.10;99.90;;;;;;5046968;28;20049;-79
2023/01/11 12:05:03;;;;;;;15.73;4.93;;;10.20;99.90;;;;;;5044234;28;20059;-79
2023/01/11 12:07:35;;;;;;;12.05;2.78;;;10.10;99.90;;;;;;5027646;28;20029;-80
2023/01/11 12:10:09;;;;;;;16.10;3.28;;;10.20;99.90;;;;;;5030870;28;20041;-79
2023/01/11 12:12:49;;;;;;;13.20;3.00;;;10.20;99.90;;;;;;5045698;28;20053;-78
2023/01/11 12:15:15;;;;;;;16.75;3.88;;;10.20;99.90;;;;;;5046392;28;20030;-79
2023/01/11 12:17:41;;;;;;;18.33;3.38;;;10.20;99.90;;;;;;5031048;28;20570;-79
2023/01/11 12:20:26;;;;;;;15.18;3.40;;;10.10;99.90;;;;;;5046097;28;20124;-79
2023/01/11 12:23:20;;;;;;;16.40;3.25;;;10.10;99.90;;;;;;5025438;28;20033;-80
2023/01/11 12:25:59;;;;;;;6.65;2.28;;;10.00;99.90;;;;;;5030088;28;20037;-79
2023/01/11 12:28:53;;;;;;;13.00;2.78;;;10.00;99.90;;;;;;5047163;28;20037;-79
2023/01/11 12:31:40;;;;;;;22.92;3.83;;;10.00;99.90;;;;;;5045116;28;20053;-79
2023/01/11 12:34:21;;;;;;;24.80;2.83;;;10.00;99.90;;;;;;5049870;28;20033;-80
2023/01/11 12:37:14;;;;;;;18.40;3.53;;;10.00;99.90;;;;;;5025837;28;20144;-80
2023/01/11 12:40:10;;;;;;;20.67;4.57;;;10.00;99.90;;;;;;5023985;28;20041;-79
2023/01/11 12:42:51;;;;;;;16.50;3.10;;;9.90;99.90;;;;;;5038922;28;20068;-78
2023/01/11 12:45:53;;;;;;;14.25;3.50;;;9.90;99.90;;;;;;5040679;28;20033;-79
2023/01/11 12:48:40;;;;;;;12.07;2.67;;;9.90;99.90;;;;;;5043256;28;20041;-80
2023/01/11 12:51:37;;;;;;;15.50;3.35;;;9.70;99.90;;;;;;5044396;28;20120;-80
2023/01/11 12:54:22;;;;;;;15.18;3.55;;;9.80;99.90;;;;;;5026227;28;20407;-80
2023/01/11 12:57:04;;;;;;;21.30;3.97;;;9.70;99.90;;;;;;5027459;28;20503;-81
2023/01/11 13:00:06;;;;;;;22.67;3.35;;;9.80;99.90;;;;;;5044209;28;20045;-80
2023/01/11 13:02:54;;;;;;;19.65;4.25;;;9.70;99.90;;;;;;5043231;28;20097;-80
2023/01/11 13:05:50;;;;;;;20.70;3.35;;;9.80;99.90;;;;;;5026964;28;20041;-80
2023/01/11 13:08:28;;;;;;;20.27;3.97;;;9.80;99.90;;;;;;5042834;28;20052;-80
2023/01/11 13:11:08;;;;;;;21.30;4.03;;;9.80;99.90;;;;;;5043605;28;20041;-80
2023/01/11 13:13:55;;;;;;;16.92;3.58;;;9.80;99.90;;;;;;5042155;28;20079;-81
2023/01/11 13:16:38;;;;;;;17.13;4.43;;;9.70;99.90;;;;;;5059387;23;20056;-82
2023/01/11 13:19:15;;;;;;;19.58;3.72;;;9.80;99.90;;;;;;5020596;28;20092;-85
2023/01/11 13:21:51;;;;;;;16.73;3.30;;;9.90;99.90;;;;;;5020553;28;20079;-84
2023/01/11 13:24:27;;;;;;;17.30;4.00;;;9.90;99.90;;;;;;5019680;28;20042;-85
2023/01/11 13:27:03;;;;;;;15.63;3.65;;;9.90;99.90;;;;;;5020894;28;20038;-85
2023/01/11 13:29:42;;;;;;;20.70;3.67;;;9.90;99.90;;;;;;5018349;28;20049;-83
2023/01/11 13:32:15;;;;;;;19.08;4.30;;;9.90;99.90;;;;;;5018237;28;20042;-84
2023/01/11 13:35:05;;;;;;;26.83;4.03;;;9.90;99.90;;;;;;5017193;28;20052;-84
2023/01/11 13:37:39;;;;;;;19.67;3.78;;;9.90;99.90;;;;;;5019958;28;20057;-83
2023/01/11 13:40:27;;;;;;;15.48;3.83;;;9.90;99.90;;;;;;5020353;28;20064;-84